Portada
METAR-TAF:

METAR-TAF

Aeroports :

Base Aèria de Morón

Morón de la Frontera, Espanya

latitud: 37-09N, longitud: 005-37W, altitud: 87 m

Observació

L'informe es va fer fa 52 minuts, a les 20:00 UTC
Vent 3 kt del Sud/Sud-Est, variant entre Est/Sud-Est i Sud/Sud-Oest
Temperatura 25°C
Humitat 34%
Pressió 1018 hPa
Visibilitat 10 km o més
sense núvols per sota de 1500 mi sense presència de cumulonimbus.

METAR: LEMO 262000Z 15003KT 110V210 CAVOK 25/08 Q1018 NOSIG

Hora: 22:52 (20:52 UTC)

Pronòstic

L'informe es va fer fa 52 minuts, a les 20:00 UTC
Pronòstic vàlid del 26 a les 21 UTC al 27 a les 06 UTC
Vent 4 kt amb direcció variable
Visibilitat 10 km o més
sense núvols per sota de 1500 mi sense presència de cumulonimbus.
Evolucionant progressivament
l' 27 a les 01 UTC al 27 a les 03 UTC
Vent 10 kt del Est

TAF: LEMO 262000Z 2621/2706 VRB04KT CAVOK BECMG 2701/2703 10010KT

Observacions i pronòstics meteorològics de més de 4000 aeroports (METAR i TAF).

Les estacions disponibles són els punts grocs i vermells al mapa.

Posi el ratolí al punt desitjat per veure el nom de l'estació.

Feu clic per veure les observacions i els pronòstics meteorològics.

Per canviar el mapa: feu clic els botons verds amb una creu de color negre per apropar; al botó verd amb un guió per allunyar la imatge; o en les fletxes verdes per a mapes adjacents.


METAR-TAF: